Time;durP1;ratioP1;P1;durP2;ratioP2;P2;SDS_P1;SDS_P2;PMS_P1;PMS_P2;Temp;Humidity;BMP_temperature;BMP_pressure;BME280_temperature;BME280_humidity;BME280_pressure;Samples;Min_cycle;Max_cycle;Signal;HPM_P1;HPM_P2
2022/05/01 00:00:36;;;;;;;12.45;6.93;;;;;;;9.22;78.32;101357.56;4976419;28;20584;-67
2022/05/01 00:03:40;;;;;;;8.05;7.18;;;;;;;9.17;78.17;101353.41;4975728;28;20049;-67
2022/05/01 00:06:43;;;;;;;10.18;7.53;;;;;;;8.95;78.83;101354.09;4975201;28;20138;-67
2022/05/01 00:09:46;;;;;;;9.90;7.15;;;;;;;8.78;79.39;101367.66;4975882;28;20128;-67
2022/05/01 00:12:50;;;;;;;8.73;6.85;;;;;;;8.73;79.34;101358.28;4975447;28;20058;-67
2022/05/01 00:15:53;;;;;;;;;;;;;;;8.72;79.28;101357.44;4976503;28;20054;-67
2022/05/01 00:18:56;;;;;;;8.38;6.63;;;;;;;8.57;78.69;101363.13;4974858;28;19921;-67
2022/05/01 00:22:00;;;;;;;;;;;;;;;8.37;79.37;101363.69;4976391;28;20122;-67
2022/05/01 00:25:03;;;;;;;12.40;6.78;;;;;;;8.59;78.49;101367.38;4975841;28;20332;-67
2022/05/01 00:28:08;;;;;;;8.57;7.20;;;;;;;8.54;78.11;101358.00;4975984;28;20130;-67
2022/05/01 00:31:11;;;;;;;10.60;6.75;;;;;;;8.27;78.89;101357.91;4975761;28;20057;-67
2022/05/01 00:37:37;;;;;;;12.20;7.60;;;;;;;8.24;79.35;101362.34;4975497;28;20015;-67
2022/05/01 00:40:40;;;;;;;10.63;6.95;;;;;;;8.13;79.15;101360.03;4970069;28;20133;-67
2022/05/01 00:44:06;;;;;;;;;;;;;;;8.23;79.03;101364.09;4969307;28;20045;-67
2022/05/01 00:47:10;;;;;;;9.10;7.00;;;;;;;8.09;79.74;101361.88;4974977;28;19937;-67
2022/05/01 00:50:15;;;;;;;11.50;7.25;;;;;;;8.06;80.28;101355.91;4974671;28;20069;-67
2022/05/01 00:53:19;;;;;;;9.93;6.80;;;;;;;8.01;80.43;101355.16;4974616;28;20053;-67
2022/05/01 00:56:24;;;;;;;7.88;6.30;;;;;;;8.00;80.34;101349.09;4962278;28;20513;-67
2022/05/01 00:59:29;;;;;;;12.95;6.55;;;;;;;8.06;80.27;101351.53;4974657;28;20066;-67
2022/05/01 01:02:33;;;;;;;11.10;7.22;;;;;;;7.98;79.91;101353.53;4974148;28;20123;-67
2022/05/01 01:05:36;;;;;;;;;;;;;;;7.95;80.28;101353.63;4974799;28;20113;-67
2022/05/01 01:08:39;;;;;;;11.10;7.25;;;;;;;8.02;80.42;101349.94;4974901;28;19921;-67
2022/05/01 01:11:43;;;;;;;;;;;;;;;8.02;80.56;101349.94;4975340;28;20049;-67
2022/05/01 01:14:46;;;;;;;10.32;6.65;;;;;;;8.04;80.58;101342.06;4975106;28;19940;-67
2022/05/01 01:17:54;;;;;;;10.88;7.28;;;;;;;7.98;81.20;101343.13;4975058;28;20118;-67
2022/05/01 01:20:57;;;;;;;10.70;6.50;;;;;;;8.15;80.17;101345.22;4974904;28;20102;-67
2022/05/01 01:24:03;;;;;;;15.60;7.13;;;;;;;8.32;79.74;101344.72;4974596;28;20049;-67
2022/05/01 01:27:06;;;;;;;10.35;6.57;;;;;;;8.43;79.56;101342.69;4974811;28;20054;-67
2022/05/01 01:33:32;;;;;;;12.05;7.53;;;;;;;8.20;80.62;101343.34;4974689;28;20061;-67
2022/05/01 01:36:37;;;;;;;9.95;6.60;;;;;;;8.20;80.88;101347.69;4974338;28;20564;-67
2022/05/01 01:39:43;;;;;;;10.93;6.38;;;;;;;8.40;80.36;101344.53;4974393;28;20061;-67
2022/05/01 01:42:47;;;;;;;9.05;7.15;;;;;;;8.47;79.79;101343.44;4972007;28;20041;-67
2022/05/01 01:45:50;;;;;;;8.50;7.43;;;;;;;8.35;80.15;101342.88;4974480;28;20552;-67
2022/05/01 01:48:54;;;;;;;12.98;8.25;;;;;;;8.38;79.98;101339.34;4974481;28;20053;-67
2022/05/01 01:51:57;;;;;;;;;;;;;;;8.27;80.76;101344.03;4974448;28;20045;-67
2022/05/01 01:55:00;;;;;;;15.27;7.15;;;;;;;8.21;81.17;101345.03;4974173;28;20288;-67
2022/05/01 01:58:04;;;;;;;11.93;7.57;;;;;;;8.18;81.25;101346.91;4974476;28;20097;-67
2022/05/01 02:01:10;;;;;;;10.57;7.75;;;;;;;8.09;81.71;101342.78;4974399;28;20085;-67
2022/05/01 02:04:14;;;;;;;9.80;6.97;;;;;;;8.22;81.66;101341.53;4974065;28;20576;-67
2022/05/01 02:07:17;;;;;;;12.57;8.05;;;;;;;8.16;81.60;101342.56;4974094;28;20050;-67
2022/05/01 02:10:20;;;;;;;;;;;;;;;8.33;81.24;101333.41;4962785;28;20069;-67
2022/05/01 02:13:24;;;;;;;11.73;7.15;;;;;;;8.45;80.26;101338.25;4972470;28;19920;-67
2022/05/01 02:16:29;;;;;;;10.15;7.55;;;;;;;8.39;80.31;101333.22;4973495;28;20528;-67
2022/05/01 02:19:32;;;;;;;9.95;7.55;;;;;;;8.24;81.41;101328.47;4973062;28;20580;-67
2022/05/01 02:22:39;;;;;;;11.77;7.20;;;;;;;8.46;80.37;101334.78;4974002;28;20061;-67
2022/05/01 02:25:43;;;;;;;7.22;6.50;;;;;;;8.61;79.92;101336.91;4973916;28;20167;-67
2022/05/01 02:28:46;;;;;;;8.55;6.53;;;;;;;8.52;80.10;101328.50;4973823;28;20046;-67
2022/05/01 02:31:53;;;;;;;8.60;6.63;;;;;;;8.55;80.00;101333.63;4973808;28;20386;-67
2022/05/01 02:34:57;;;;;;;9.10;6.55;;;;;;;8.40;80.71;101332.34;4961616;28;20054;-67
2022/05/01 02:38:02;;;;;;;8.05;7.25;;;;;;;8.32;81.15;101331.69;4973722;28;20129;-67
2022/05/01 02:41:04;;;;;;;11.93;8.25;;;;;;;8.22;81.35;101330.25;4973782;28;20038;-67
2022/05/01 02:44:08;;;;;;;;;;;;;;;8.29;81.46;101322.19;4974232;28;20096;-67
2022/05/01 02:47:11;;;;;;;10.60;7.18;;;;;;;8.36;81.29;101322.91;4973746;28;20312;-67
2022/05/01 02:50:14;;;;;;;10.00;7.57;;;;;;;8.21;81.74;101318.16;4973516;28;20465;-67
2022/05/01 02:53:18;;;;;;;;;;;;;;;8.21;81.75;101313.78;4974057;28;20513;-67
2022/05/01 02:56:21;;;;;;;;;;;;;;;8.10;82.47;101310.63;4974051;28;20419;-67
2022/05/01 02:59:24;;;;;;;14.93;7.70;;;;;;;8.20;82.05;101313.81;4973633;28;19921;-67
2022/05/01 03:02:28;;;;;;;11.18;7.65;;;;;;;8.18;82.16;101315.63;4973632;28;20045;-67
2022/05/01 03:05:31;;;;;;;10.57;7.80;;;;;;;8.15;82.50;101309.59;4973231;28;20071;-67
2022/05/01 03:08:34;;;;;;;;;;;;;;;8.15;82.31;101308.75;4974257;28;20151;-67
2022/05/01 03:11:38;;;;;;;11.05;7.85;;;;;;;8.16;82.17;101306.09;4972602;28;19972;-67
2022/05/01 03:14:41;;;;;;;11.10;9.43;;;;;;;8.08;82.32;101300.28;4961794;28;20058;-67
2022/05/01 03:24:28;;;;;;;10.90;7.63;;;;;;;8.01;82.16;101310.88;4973420;28;20521;-67
2022/05/01 03:27:31;;;;;;;;;;;;;;;7.97;81.75;101304.94;4973958;28;20099;-67
2022/05/01 03:30:34;;;;;;;13.25;7.53;;;;;;;7.82;82.47;101306.22;4976036;28;19921;-67
2022/05/01 03:33:38;;;;;;;;;;;;;;;7.80;82.61;101296.75;4977242;28;20058;-67
2022/05/01 03:36:41;;;;;;;9.45;7.40;;;;;;;7.83;82.93;101299.28;4976886;28;19969;-67
2022/05/01 03:39:44;;;;;;;;;;;;;;;7.85;82.55;101295.75;4977662;28;20053;-67
2022/05/01 03:42:47;;;;;;;;;;;;;;;7.80;82.90;101296.75;4975859;28;19960;-67
2022/05/01 03:45:51;;;;;;;;;;;;;;;7.87;82.57;101303.50;4977218;28;19937;-67
2022/05/01 03:48:54;;;;;;;;;;;;;;;7.97;82.32;101299.72;4965170;28;19968;-67
2022/05/01 03:51:57;;;;;;;;;;;;;;;7.95;82.42;101306.75;4965346;28;19941;-67
2022/05/01 03:55:00;;;;;;;;;;;;;;;8.05;82.16;101302.13;4977211;28;19921;-67
2022/05/01 03:58:04;;;;;;;;;;;;;;;8.07;81.83;101306.38;4977355;28;19968;-67
2022/05/01 04:01:07;;;;;;;;;;;;;;;8.15;81.53;101301.78;4976895;28;20409;-67
2022/05/01 04:04:10;;;;;;;;;;;;;;;8.24;81.35;101305.03;4976806;28;20387;-67
2022/05/01 04:07:14;;;;;;;;;;;;;;;8.16;81.53;101294.81;4977194;28;19920;-67
2022/05/01 04:10:18;;;;;;;;;;;;;;;8.13;81.58;101294.91;4977120;28;19937;-67
2022/05/01 04:13:22;;;;;;;;;;;;;;;7.96;82.52;101303.22;4976828;28;20076;-67
2022/05/01 04:16:25;;;;;;;;;;;;;;;7.89;83.01;101294.75;4976716;28;19921;-67
2022/05/01 04:19:28;;;;;;;;;;;;;;;7.94;82.61;101299.81;4950511;28;19924;-67
2022/05/01 04:22:38;;;;;;;;;;;;;;;7.96;82.51;101299.78;4976562;28;20033;-67
2022/05/01 04:25:41;;;;;;;;;;;;;;;8.07;82.04;101306.38;4976679;28;19969;-67
2022/05/01 04:32:08;;;;;;;;;;;;;;;8.26;81.24;101304.06;4976112;28;19988;-67
2022/05/01 04:35:12;;;;;;;;;;;;;;;8.44;81.06;101301.84;4976434;28;20023;-67
2022/05/01 04:38:17;;;;;;;;;;;;;;;8.23;81.42;101308.50;4976661;28;19921;-67
2022/05/01 04:41:20;;;;;;;;;;;;;;;8.16;81.98;101311.28;4637473;28;10000139;-67
2022/05/01 04:44:24;;;;;;;;;;;;;;;8.33;81.22;101309.97;4995883;28;19921;-67
2022/05/01 04:47:27;;;;;;;;;;;;;;;8.26;81.54;101311.03;4611454;29;10001264;-67
2022/05/01 04:50:30;;;;;;;;;;;;;;;8.26;81.84;101308.41;4953056;29;19921;-67
2022/05/01 04:53:33;;;;;;;;;;;;;;;8.53;80.53;101314.59;4953432;29;19930;-67
2022/05/01 05:00:00;;;;;;;;;;;;;;;8.59;80.22;101310.03;4963699;28;19924;-67
2022/05/01 05:03:04;;;;;;;;;;;;;;;8.37;81.44;101309.81;4968880;28;19945;-67
2022/05/01 05:06:09;;;;;;;;;;;;;;;8.38;82.12;101314.16;4969385;28;19924;-67
2022/05/01 05:12:35;;;;;;;;;;;;;;;8.67;80.46;101308.94;4620557;28;10001268;-67
2022/05/01 05:15:38;;;;;;;;;;;;;;;8.67;80.79;101309.78;4971841;28;19972;-67
2022/05/01 05:18:42;;;;;;;;;;;;;;;8.57;80.85;101322.25;4973690;28;20385;-67
2022/05/01 05:21:45;;;;;;;;;;;;;;;8.68;80.58;101316.72;4975581;28;20284;-67
2022/05/01 05:24:48;;;;;;;;;;;;;;;8.74;80.25;101316.53;4975568;28;19921;-67
2022/05/01 05:27:51;;;;;;;;;;;;;;;8.78;80.08;101320.75;4974401;28;19925;-67
2022/05/01 05:30:54;;;;;;;;;;;;;;;8.71;80.67;101320.97;4975038;28;19921;-67
2022/05/01 05:33:57;;;;;;;;;;;;;;;8.69;80.97;101312.34;4975069;28;19925;-67
2022/05/01 05:37:00;;;;;;;;;;;;;;;8.63;81.20;101315.16;4975022;28;19961;-67
2022/05/01 05:40:04;;;;;;;;;;;;;;;8.67;81.32;101316.75;4975300;28;19922;-67
2022/05/01 05:43:08;;;;;;;;;;;;;;;8.68;81.23;101315.84;4974519;28;19930;-67
2022/05/01 05:46:11;;;;;;;;;;;;;;;8.69;81.52;101325.41;4974831;28;20412;-67
2022/05/01 05:49:14;;;;;;;;;;;;;;;8.80;81.16;101329.34;4974785;28;19924;-67
2022/05/01 05:52:18;;;;;;;;;;;;;;;8.96;80.52;101334.91;4973635;28;20404;-67
2022/05/01 05:55:20;;;;;;;;;;;;;;;8.95;79.98;101332.38;4974789;28;19968;-67
2022/05/01 05:58:23;;;;;;;;;;;;;;;8.85;80.24;101326.59;4974552;28;19920;-67
2022/05/01 06:01:26;;;;;;;;;;;;;;;9.03;80.16;101323.41;4974448;28;20029;-67
2022/05/01 06:04:30;;;;;;;;;;;;;;;9.13;79.52;101320.50;4974586;28;19921;-67
2022/05/01 06:07:33;;;;;;;;;;;;;;;9.22;78.75;101322.75;4973962;28;19921;-67
2022/05/01 06:10:38;;;;;;;;;;;;;;;9.08;79.86;101331.91;4974269;28;19920;-67
2022/05/01 06:13:41;;;;;;;;;;;;;;;9.02;79.95;101329.50;4974225;28;19921;-67
2022/05/01 06:16:44;;;;;;;;;;;;;;;9.12;79.44;101327.44;4974360;28;20441;-67
2022/05/01 06:19:47;;;;;;;;;;;;;;;9.25;79.35;101326.16;4967705;28;19921;-67
2022/05/01 06:22:51;;;;;;;;;;;;;;;9.20;79.19;101320.22;4974013;28;20404;-67
2022/05/01 06:25:55;;;;;;;;;;;;;;;9.14;79.05;101324.78;4973993;28;19921;-67
2022/05/01 06:28:59;;;;;;;;;;;;;;;9.11;79.16;101333.56;4974064;28;19933;-67
2022/05/01 06:32:02;;;;;;;;;;;;;;;9.10;79.42;101323.19;4973866;28;19945;-67
2022/05/01 06:35:06;;;;;;;;;;;;;;;9.22;78.91;101327.97;4973388;28;19973;-67
2022/05/01 06:38:09;;;;;;;;;;;;;;;9.43;78.03;101329.88;4974492;28;19940;-67
2022/05/01 06:41:12;;;;;;;;;;;;;;;9.47;77.53;101321.00;4972278;28;20289;-67
2022/05/01 06:44:15;;;;;;;;;;;;;;;9.29;77.89;101326.91;4973866;28;19921;-67
2022/05/01 06:47:19;;;;;;;;;;;;;;;9.41;76.86;101323.88;4974175;28;19968;-67
2022/05/01 06:50:22;;;;;;;;;;;;;;;9.62;75.91;101321.41;4954618;29;19961;-67
2022/05/01 06:53:29;;;;;;;;;;;;;;;9.43;76.25;101323.78;4954589;29;19921;-67
2022/05/01 06:56:32;;;;;;;;;;;;;;;9.61;75.86;101327.53;4954295;29;20049;-67
2022/05/01 06:59:35;;;;;;;;;;;;;;;9.80;75.65;101327.72;4954492;29;19957;-67
2022/05/01 07:02:45;;;;;;;;;;;;;;;9.70;75.67;101322.84;4965934;28;19925;-67
2022/05/01 07:05:49;;;;;;;;;;;;;;;9.91;75.44;101326.41;4977365;28;19969;-67
2022/05/01 07:08:52;;;;;;;;;;;;;;;9.87;74.75;101319.59;4977648;28;20355;-67
2022/05/01 07:11:55;;;;;;;;;;;;;;;9.79;75.42;101319.00;4977273;28;20032;-67
2022/05/01 07:14:58;;;;;;;;;;;;;;;10.10;74.66;101312.66;4977638;28;20431;-67
2022/05/01 07:18:01;;;;;;;;;;;;;;;10.29;73.59;101310.25;4973884;28;20379;-67
2022/05/01 07:21:04;;;;;;;;;;;;;;;9.98;72.82;101311.34;4968300;28;19953;-67
2022/05/01 07:24:07;;;;;;;;;;;;;;;10.32;71.86;101310.13;4977643;28;20337;-67
2022/05/01 07:27:11;;;;;;;;;;;;;;;10.46;71.68;101311.31;4965594;28;19940;-67
2022/05/01 07:30:15;;;;;;;;;;;;;;;10.40;70.40;101310.66;4976682;28;19921;-67
2022/05/01 07:33:18;;;;;;;;;;;;;;;10.62;69.88;101303.66;4976106;28;19973;-67
2022/05/01 07:36:20;;;;;;;;;;;;;;;10.82;66.42;101302.03;4975227;28;19921;-68
2022/05/01 07:39:24;;;;;;;;;;;;;;;10.98;65.82;101299.66;4977340;28;19921;-67
2022/05/01 07:42:27;;;;;;;;;;;;;;;11.18;65.46;101297.03;4972591;28;19921;-67
2022/05/01 07:45:30;;;;;;;;;;;;;;;11.32;63.62;101294.66;4973395;28;19940;-67
2022/05/01 07:48:34;;;;;;;;;;;;;;;11.43;63.96;101296.00;4977082;28;19986;-67
2022/05/01 07:51:39;;;;;;;;;;;;;;;11.54;63.65;101296.34;4973841;28;19983;-67
2022/05/01 07:54:42;;;;;;;;;;;;;;;11.64;64.38;101302.88;4972195;28;20407;-67
2022/05/01 07:57:46;;;;;;;;;;;;;;;11.51;63.19;101305.19;4969211;28;19968;-68
2022/05/01 08:00:49;;;;;;;;;;;;;;;11.29;64.24;101305.25;4974199;28;19920;-67
2022/05/01 08:07:15;;;;;;;;;;;;;;;11.61;62.33;101298.66;4975873;28;19925;-67
2022/05/01 08:10:18;;;;;;;;;;;;;;;11.55;62.67;101295.44;4976279;28;20431;-67
2022/05/01 08:13:21;;;;;;;;;;;;;;;11.75;62.42;101290.16;4976297;28;19925;-67
2022/05/01 08:16:24;;;;;;;;;;;;;;;11.89;62.32;101296.59;4975128;28;20380;-67
2022/05/01 08:22:50;;;;;;;;;;;;;;;12.05;61.38;101289.72;4976314;28;19976;-67
2022/05/01 08:25:53;;;;;;;;;;;;;;;12.12;60.52;101291.13;4976206;28;19952;-67
2022/05/01 08:28:56;;;;;;;;;;;;;;;12.14;60.41;101289.28;4976969;28;19920;-67
2022/05/01 08:32:00;;;;;;;;;;;;;;;12.17;60.79;101289.16;4976620;28;19925;-68
2022/05/01 08:35:03;;;;;;;;;;;;;;;12.18;60.67;101290.84;4976685;28;19925;-67
2022/05/01 08:38:08;;;;;;;;;;;;;;;12.44;61.21;101301.88;4976785;28;20415;-67
2022/05/01 08:41:11;;;;;;;;;;;;;;;12.57;60.12;101289.88;4976207;28;19920;-67
2022/05/01 08:44:16;;;;;;;;;;;;;;;12.61;59.00;101294.06;4976101;28;19960;-67
2022/05/01 08:47:23;;;;;;;;;;;;;;;12.42;58.54;101286.22;4975798;28;19929;-67
2022/05/01 08:50:26;;;;;;;;;;;;;;;12.62;58.45;101282.63;4975980;28;19980;-67
2022/05/01 08:53:29;;;;;;;;;;;;;;;12.76;57.90;101292.44;4974086;28;19976;-67
2022/05/01 08:56:34;;;;;;;;;;;;;;;12.83;57.53;101293.00;4975639;28;20008;-67
2022/05/01 08:59:40;;;;;;;;;;;;;;;12.93;57.10;101289.00;4975717;28;19972;-67
2022/05/01 09:02:44;;;;;;;;;;;;;;;12.96;56.93;101283.59;4975817;28;19968;-67
2022/05/01 09:05:47;;;;;;;;;;;;;;;13.08;58.01;101290.88;4975597;28;19920;-67
2022/05/01 09:08:51;;;;;;;;;;;;;;;13.04;57.83;101292.78;4975637;28;19984;-67
2022/05/01 09:15:35;;;;;;;;;;;;;;;13.10;57.58;101277.66;4975889;28;19925;-67
2022/05/01 09:18:43;;;;;;;;;;;;;;;13.08;57.20;101276.88;4975543;28;19969;-67
2022/05/01 09:21:50;;;;;;;;;;;;;;;12.95;57.58;101277.47;4975324;28;19968;-67
2022/05/01 09:24:54;;;;;;;;;;;;;;;13.16;57.80;101278.19;4975791;28;19921;-67
2022/05/01 09:27:59;;;;;;;;;;;;;;;13.18;57.40;101278.13;4975087;28;19921;-68
2022/05/01 09:31:03;;;;;;;;;;;;;;;13.25;56.98;101283.00;4975176;28;20380;-67
2022/05/01 09:34:25;;;;;;;;;;;;;;;13.33;56.18;101277.34;4974840;28;20041;-67
2022/05/01 09:37:28;;;;;;;;;;;;;;;13.34;55.98;101278.22;4962955;28;19969;-67
2022/05/01 09:40:32;;;;;;;;;;;;;;;13.48;56.39;101270.44;4975484;28;19930;-67
2022/05/01 09:43:35;;;;;;;;;;;;;;;13.64;55.67;101276.59;4963391;28;19921;-67
2022/05/01 09:46:38;;;;;;;;;;;;;;;13.76;55.70;101264.59;4973438;28;19921;-67
2022/05/01 09:49:51;;;;;;;;;;;;;;;13.81;55.33;101269.59;4974687;28;19928;-68
2022/05/01 09:52:59;;;;;;;;;;;;;;;13.86;54.90;101257.91;4974679;28;20304;-68
2022/05/01 09:56:02;;;;;;;;;;;;;;;13.92;55.67;101262.81;4963049;28;19920;-68
2022/05/01 09:59:05;;;;;;;;;;;;;;;13.97;58.09;101262.56;4951916;28;19920;-68
2022/05/01 10:02:09;;;;;;;;;;;;;;;14.14;55.71;101264.28;4974795;28;20419;-68
2022/05/01 10:05:11;;;;;;;;;;;;;;;14.26;56.53;101263.56;4974581;28;19969;-68
2022/05/01 10:08:16;;;;;;;;;;;;;;;14.38;55.86;101254.16;4974524;28;19921;-70
2022/05/01 10:11:20;;;;;;;;;;;;;;;14.43;54.06;101254.75;4974652;28;20221;-70
2022/05/01 10:14:24;;;;;;;;;;;;;;;14.28;55.37;101258.25;4974503;28;19930;-70
2022/05/01 10:17:27;;;;;;;;;;;;;;;14.47;54.49;101248.38;4972707;28;20289;-67
2022/05/01 10:20:31;;;;;;;;;;;;;;;14.74;53.76;101260.91;4974172;28;19968;-67
2022/05/01 10:23:35;;;;;;;;;;;;;;;14.81;53.56;101259.63;4974330;28;19921;-67
2022/05/01 10:26:39;;;;;;;;;;;;;;;14.81;53.45;101255.22;4974227;28;19921;-67
2022/05/01 10:32:20;;;;;;;;;;;;;;;14.78;53.43;101262.44;4974365;28;19920;-67
2022/05/01 10:33:05;;;;;;;;;;;;;;;14.78;53.25;101259.81;4973942;28;19925;-67
2022/05/01 10:36:26;;;;;;;;;;;;;;;14.83;53.07;101255.09;4974091;28;20293;-67
2022/05/01 10:39:34;;;;;;;;;;;;;;;14.87;52.70;101254.00;4973701;28;20435;-67
2022/05/01 10:42:46;;;;;;;;;;;;;;;14.88;52.42;101250.44;4974074;28;20420;-68
2022/05/01 10:45:50;;;;;;;;;;;;;;;14.92;52.89;101246.66;4972364;28;19980;-68
2022/05/01 10:48:58;;;;;;;;;;;;;;;15.01;52.08;101247.91;4973933;28;19921;-67
2022/05/01 10:52:13;;;;;;;;;;;;;;;15.09;51.42;101236.00;4961908;28;20032;-67
2022/05/01 10:55:16;;;;;;;;;;;;;;;15.37;56.39;101238.75;4974129;28;19937;-68
2022/05/01 10:58:27;;;;;;;;;;;;;;;15.78;54.36;101225.66;4973967;28;20281;-69
2022/05/01 11:01:49;;;;;;;;;;;;;;;15.90;51.38;101222.25;4973792;28;19968;-69
2022/05/01 11:04:52;;;;;;;;;;;;;;;16.03;53.35;101220.53;4973747;28;20380;-69
2022/05/01 11:07:57;;;;;;;;;;;;;;;16.19;53.64;101222.19;4973759;28;19960;-69
2022/05/01 11:11:01;;;;;;;;;;;;;;;16.19;51.14;101214.28;4973668;28;19925;-69
2022/05/01 11:14:04;;;;;;;;;;;;;;;16.00;50.86;101220.72;4973722;28;20428;-69
2022/05/01 11:17:08;;;;;;;;;;;;;;;16.02;51.33;101215.38;4972209;28;19921;-69
2022/05/01 11:20:14;;;;;;;;;;;;;;;15.95;50.82;101212.28;4973534;28;19925;-69
2022/05/01 11:23:31;;;;;;;;;;;;;;;16.10;50.13;101199.88;4973603;28;19929;-69
2022/05/01 11:26:34;;;;;;;;;;;;;;;16.23;49.31;101200.75;4973786;28;19968;-69
2022/05/01 11:29:38;;;;;;;;;;;;;;;16.33;50.21;101194.88;4973689;28;19984;-69
2022/05/01 11:32:51;;;;;;;;;;;;;;;16.41;49.49;101211.91;4972465;28;20289;-69
2022/05/01 11:36:01;;;;;;;;;;;;;;;16.51;48.94;101198.97;4971927;28;19920;-69
2022/05/01 11:39:04;;;;;;;;;;;;;;;16.21;48.79;101188.63;4959795;28;19976;-69
2022/05/01 11:42:29;;;;;;;;;;;;;;;16.15;51.02;101187.25;4971604;28;20031;-69
2022/05/01 11:45:32;;;;;;;;;;;;;;;16.23;49.81;101181.44;4959431;28;19960;-69
2022/05/01 11:48:36;;;;;;;;;;;;;;;16.19;50.15;101177.31;4973098;28;19921;-69
2022/05/01 11:51:39;;;;;;;;;;;;;;;16.40;49.27;101170.66;4974661;28;19937;-69
2022/05/01 11:54:59;;;;;;;;;;;;;;;16.63;49.73;101170.91;4976441;28;19920;-69
2022/05/01 12:04:45;;;;;;;;;;;;;;;17.00;49.15;101160.47;4977252;28;19920;-69
2022/05/01 12:07:53;;;;;;;;;;;;;;;17.42;47.20;101154.84;4977194;28;19964;-69
2022/05/01 12:10:56;;;;;;;;;;;;;;;17.28;46.68;101152.31;4974955;28;19960;-68
2022/05/01 12:14:04;;;;;;;;;;;;;;;17.31;46.44;101146.81;4976525;28;20058;-68
2022/05/01 12:17:12;;;;;;;;;;;;;;;17.03;46.89;101141.78;4976598;28;20014;-68
2022/05/01 12:20:18;;;;;;;;;;;;;;;17.31;47.86;101143.34;4954100;28;20439;-70
2022/05/01 12:23:22;;;;;;;;;;;;;;;17.43;47.70;101140.66;4964883;28;20052;-70
2022/05/01 12:26:26;;;;;;;;;;;;;;;17.09;47.35;101136.06;4964424;28;19969;-70
2022/05/01 12:29:30;;;;;;;;;;;;;;;17.37;46.76;101135.81;4976112;28;20016;-70
2022/05/01 12:32:35;;;;;;;;;;;;;;;17.30;47.08;101129.28;4976041;28;19972;-70
2022/05/01 12:35:52;;;;;;;;;;;;;;;17.29;47.79;101124.94;4976543;28;19920;-71
2022/05/01 12:39:02;;;;;;;;;;;;;;;16.71;48.18;101132.44;4976375;28;19920;-68
2022/05/01 12:45:39;;;;;;;;;;;;;;;15.70;50.49;101133.88;4974333;28;19929;-68
2022/05/01 12:48:43;;;;;;;;;;;;;;;16.29;48.69;101128.28;4975892;28;19960;-68
2022/05/01 12:51:46;;;;;;;;;;;;;;;16.68;47.97;101121.25;4976032;28;20424;-68
2022/05/01 12:55:18;;;;;;;;;;;;;;;16.40;48.82;101120.50;4975889;28;20112;-68
2022/05/01 12:58:29;;;;;;;;;;;;;;;16.20;47.70;101116.53;4975578;28;19921;-68
2022/05/01 13:01:33;;;;;;;;;;;;;;;16.68;47.61;101118.59;4975793;28;19921;-68
2022/05/01 13:04:36;;;;;;;;;;;;;;;17.05;47.07;101111.66;4975755;28;20297;-68
2022/05/01 13:07:40;;;;;;;;;;;;;;;17.20;47.38;101107.09;4975729;28;19929;-68
2022/05/01 13:10:43;;;;;;;;;;;;;;;17.53;46.45;101100.34;4975602;28;19921;-68
2022/05/01 13:13:58;;;;;;;;;;;;;;;18.22;45.09;101100.56;4974332;28;19921;-68
2022/05/01 13:17:09;;;;;;;;;;;;;;;18.70;44.13;101096.00;4954715;29;19945;-69
2022/05/01 13:20:12;;;;;;;;;;;;;;;18.56;44.10;101090.91;4956471;29;19945;-69
2022/05/01 13:23:16;;;;;;;;;;;;;;;18.22;45.24;101092.63;4956050;29;19961;-69
2022/05/01 13:30:12;;;;;;;;;;;;;;;17.29;46.77;101077.34;4956352;29;20389;-71
2022/05/01 13:33:16;;;;;;;;;;;;;;;17.35;47.00;101079.56;4955853;29;20008;-72
2022/05/01 13:36:19;;;;;;;;;;;;;;;17.44;46.45;101078.91;4955967;29;20042;-75
2022/05/01 13:39:22;;;;;;;;;;;;;;;17.44;46.08;101076.25;4955755;29;19920;-70
2022/05/01 13:45:49;;;;;;;;;;;;;;;17.17;46.91;101071.16;4973939;28;19937;-69
2022/05/01 13:48:53;;;;;;;;;;;;;;;17.24;46.28;101065.44;4974270;28;20424;-69
2022/05/01 13:51:56;;;;;;;;;;;;;;;17.11;47.24;101068.13;4974912;28;19925;-69
2022/05/01 13:54:59;;;;;;;;;;;;;;;17.44;46.27;101067.47;4974630;28;19964;-68
2022/05/01 13:58:03;;;;;;;;;;;;;;;17.38;46.91;101068.75;4974646;28;19920;-70
2022/05/01 14:01:06;;;;;;;;;;;;;;;16.66;47.40;101073.00;4968988;28;19921;-68
2022/05/01 14:04:10;;;;;;;;;;;;;;;16.79;47.35;101071.22;4958851;28;19925;-69
2022/05/01 14:07:13;;;;;;;;;;;;;;;16.68;48.14;101074.56;4955391;29;20038;-69
2022/05/01 14:10:16;;;;;;;;;;;;;;;16.60;47.20;101063.69;4955368;29;19980;-69
2022/05/01 14:13:20;;;;;;;;;;;;;;;16.51;47.27;101057.25;4955401;28;19944;-69
2022/05/01 14:16:23;;;;;;;;;;;;;;;16.18;49.02;101059.56;4955225;29;19921;-68
2022/05/01 14:19:27;;;;;;;;;;;;;;;16.16;49.24;101061.44;4955292;29;20293;-68
2022/05/01 14:22:31;;;;;;;;;;;;;;;16.34;49.48;101059.38;4958760;28;19921;-68
2022/05/01 14:25:34;;;;;;;;;;;;;;;16.74;48.69;101046.88;4968637;28;19968;-67
2022/05/01 14:28:40;;;;;;;;;;;;;;;17.23;46.63;101045.22;4973838;28;19936;-68
2022/05/01 14:31:59;;;;;;;;;;;;;;;17.33;46.33;101049.75;4974131;28;20436;-67
2022/05/01 14:35:07;;;;;;;;;;;;;;;17.96;46.00;101049.59;4974284;28;19941;-68
2022/05/01 14:38:15;;;;;;;;;;;;;;;18.07;44.07;101039.91;4973908;28;20392;-68
2022/05/01 14:41:24;;;;;;;;;;;;;;;17.85;45.03;101038.03;4974170;28;19921;-68
2022/05/01 14:44:32;;;;;;;;;;;;;;;17.15;46.55;101032.59;4973560;28;19936;-67
2022/05/01 14:47:42;;;;;;;;;;;;;;;17.07;47.45;101032.28;4963842;28;20011;-68
2022/05/01 14:50:46;;;;;;;;;;;;;;;17.20;47.01;101028.66;4950276;28;20064;-68
2022/05/01 14:53:50;;;;;;;;;;;;;;;17.13;46.96;101029.19;4950013;28;19929;-68
2022/05/01 14:56:56;;;;;;;;;;;;;;;16.90;47.30;101029.03;4949559;29;19979;-68
2022/05/01 15:06:46;;;;;;;;;;;;;;;16.06;48.70;101034.00;4950186;29;19921;-68
2022/05/01 15:09:49;;;;;;;;;;;;;;;15.90;49.52;101035.00;4961061;28;19921;-68
2022/05/01 15:12:54;;;;;;;;;;;;;;;16.01;50.36;101032.50;4969233;28;19969;-68
2022/05/01 15:15:58;;;;;;;;;;;;;;;16.22;50.21;101030.22;4977317;28;19920;-68
2022/05/01 15:19:01;;;;;;;;;;;;;;;16.23;50.19;101025.78;4987082;28;20320;-68
2022/05/01 15:22:23;;;;;;;;;;;;;;;16.20;50.13;101025.97;4975356;28;19964;-68
2022/05/01 15:25:29;;;;;;;;;;;;;;;16.22;50.55;101029.38;4964891;28;20456;-68
2022/05/01 15:28:35;;;;;;;;;;;;;;;16.23;50.33;101026.59;4972954;28;20329;-67
2022/05/01 15:31:39;;;;;;;;;;;;;;;16.16;50.37;101024.50;4954104;28;19945;-67
2022/05/01 15:34:42;;;;;;;;;;;;;;;16.14;50.41;101029.03;4972976;28;19973;-68
2022/05/01 15:37:48;;;;;;;;;;;;;;;16.08;50.62;101021.53;4972444;28;19930;-67
2022/05/01 15:40:56;;;;;;;;;;;;;;;16.02;51.55;101026.28;4972658;28;19925;-67
2022/05/01 15:44:04;;;;;;;;;;;;;;;16.00;51.32;101017.63;4968266;28;19925;-67
2022/05/01 15:47:08;;;;;;;;;;;;;;;15.99;51.09;101023.84;4966509;28;20408;-68
2022/05/01 15:53:37;;;;;;;;;;;;;;;15.83;51.37;101027.63;4969555;28;20385;-68
2022/05/01 15:56:41;;;;;;;;;;;;;;;15.91;51.92;101020.88;4969812;28;20328;-68
2022/05/01 15:59:47;;;;;;;;;;;;;;;15.96;51.96;101021.41;4979371;28;19921;-67
2022/05/01 16:02:54;;;;;;;;;;;;;;;15.90;51.66;101011.28;4989136;28;19920;-67
2022/05/01 16:05:59;;;;;;;;;;;;;;;15.96;51.48;101013.50;4967088;28;19990;-67
2022/05/01 16:09:04;;;;;;;;;;;;;;;15.94;52.00;101012.75;4976645;28;19980;-68
2022/05/01 16:12:27;;;;;;;;;;;;;;;15.95;51.51;101013.59;4972112;28;19972;-67
2022/05/01 16:15:30;;;;;;;;;;;;;;;15.99;51.55;101010.66;4971522;28;19921;-67
2022/05/01 16:18:37;;;;;;;;;;;;;;;16.00;51.33;101014.97;4974037;28;19929;-67
2022/05/01 16:21:49;;;;;;;;;;;;;;;16.09;51.62;101010.03;4953747;28;19965;-68
2022/05/01 16:24:56;;;;;;;;;;;;;;;16.12;50.92;101007.22;4965086;28;19921;-67
2022/05/01 16:28:00;;;;;;;;;;;;;;;16.21;50.74;101006.59;4959690;28;19921;-67
2022/05/01 16:31:08;;;;;;;;;;;;;;;16.12;51.44;101004.56;4970197;28;20007;-68
2022/05/01 16:34:17;;;;;;;;;;;;;;;16.19;51.15;100995.28;4991576;28;19968;-67
2022/05/01 16:37:23;;;;;;;;;;;;;;;16.01;52.43;101000.84;4991606;28;20379;-68